Time;durP1;ratioP1;P1;durP2;ratioP2;P2;SDS_P1;SDS_P2;PMS_P1;PMS_P2;Temp;Humidity;BMP_temperature;BMP_pressure;BME280_temperature;BME280_humidity;BME280_pressure;Samples;Min_cycle;Max_cycle;Signal;HPM_P1;HPM_P2
2023/07/12 00:00:20;;;;;;;1.97;1.10;;;18.50;99.90;;;;;;5075811;28;20465;-84
2023/07/12 00:02:47;;;;;;;2.00;1.00;;;18.50;99.90;;;;;;5075868;28;20433;-84
2023/07/12 00:05:14;;;;;;;2.30;1.50;;;18.50;99.90;;;;;;5075180;28;20827;-84
2023/07/12 00:07:41;;;;;;;3.13;1.40;;;18.50;99.90;;;;;;5075481;28;20456;-83
2023/07/12 00:10:19;;;;;;;1.20;1.10;;;18.50;99.90;;;;;;5075638;28;20468;-82
2023/07/12 00:12:45;;;;;;;1.07;0.97;;;18.50;99.90;;;;;;5075685;28;20437;-83
2023/07/12 00:15:22;;;;;;;2.90;1.20;;;18.50;99.90;;;;;;5075632;28;20441;-82
2023/07/12 00:17:49;;;;;;;2.33;1.30;;;18.50;99.90;;;;;;5075322;28;20916;-82
2023/07/12 00:20:26;;;;;;;1.90;1.07;;;18.60;99.90;;;;;;5075479;28;20471;-82
2023/07/12 00:22:53;;;;;;;1.37;1.10;;;18.60;99.90;;;;;;5075573;28;20425;-82
2023/07/12 00:25:22;;;;;;;1.70;1.10;;;18.70;99.90;;;;;;5075383;28;20488;-81
2023/07/12 00:27:49;;;;;;;2.43;1.50;;;18.60;99.90;;;;;;5075203;28;20437;-82
2023/07/12 00:30:21;;;;;;;2.23;1.20;;;18.60;99.90;;;;;;5074814;28;21003;-82
2023/07/12 00:32:49;;;;;;;1.10;1.00;;;18.70;99.90;;;;;;5075327;28;20433;-82
2023/07/12 00:35:18;;;;;;;0.97;0.87;;;18.70;99.90;;;;;;5075231;28;20498;-82
2023/07/12 00:37:45;;;;;;;1.50;1.10;;;18.70;99.90;;;;;;5075199;28;20441;-82
2023/07/12 00:40:28;;;;;;;1.20;1.10;;;18.70;99.90;;;;;;5075037;28;20465;-81
2023/07/12 00:43:04;;;;;;;3.13;1.03;;;18.70;99.90;;;;;;5075106;28;20429;-82
2023/07/12 00:45:33;;;;;;;0.60;0.60;;;18.70;99.90;;;;;;5075558;28;20464;-81
2023/07/12 00:48:00;;;;;;;3.23;1.07;;;18.70;99.90;;;;;;5074646;28;20445;-81
2023/07/12 00:50:27;;;;;;;1.00;0.90;;;18.80;99.90;;;;;;5074864;28;20461;-82
2023/07/12 00:52:55;;;;;;;1.97;0.70;;;18.80;99.90;;;;;;5074897;28;20441;-81
2023/07/12 00:55:58;;;;;;;1.37;1.07;;;18.80;99.90;;;;;;5074773;28;20449;-81
2023/07/12 00:58:26;;;;;;;1.13;1.03;;;18.80;99.90;;;;;;5074420;28;20451;-81
2023/07/12 01:00:57;;;;;;;1.10;0.70;;;18.80;99.90;;;;;;5074628;28;20469;-81
2023/07/12 01:03:25;;;;;;;3.30;1.00;;;18.80;99.90;;;;;;5074381;28;20924;-81
2023/07/12 01:05:52;;;;;;;0.80;0.80;;;18.80;99.90;;;;;;5074466;28;20496;-81
2023/07/12 01:08:20;;;;;;;1.13;1.03;;;18.90;99.90;;;;;;5074551;28;20457;-81
2023/07/12 01:10:48;;;;;;;1.00;0.90;;;19.00;99.90;;;;;;5074421;28;20465;-81
2023/07/12 01:13:15;;;;;;;1.67;1.23;;;18.90;99.90;;;;;;5074278;28;20940;-82
2023/07/12 01:15:41;;;;;;;1.00;1.00;;;18.90;99.90;;;;;;5073540;28;20460;-81
2023/07/12 01:18:10;;;;;;;2.03;0.90;;;18.90;99.90;;;;;;5074327;28;20449;-81
2023/07/12 01:20:38;;;;;;;5.40;0.80;;;18.90;99.90;;;;;;5073995;28;20979;-81
2023/07/12 01:23:06;;;;;;;0.93;0.83;;;18.90;99.90;;;;;;5074246;28;20456;-81
2023/07/12 01:25:37;;;;;;;1.63;1.00;;;18.80;99.90;;;;;;5074161;28;20468;-82
2023/07/12 01:28:04;;;;;;;5.77;1.30;;;18.80;99.90;;;;;;5073876;28;20936;-82
2023/07/12 01:30:32;;;;;;;3.37;0.73;;;18.80;99.90;;;;;;5073641;28;20484;-82
2023/07/12 01:32:59;;;;;;;1.47;1.10;;;18.80;99.90;;;;;;5074034;28;20456;-82
2023/07/12 01:35:26;;;;;;;0.90;0.90;;;18.80;99.90;;;;;;5074043;28;20452;-81
2023/07/12 01:37:53;;;;;;;0.70;0.70;;;18.90;99.90;;;;;;5073984;28;20455;-82
2023/07/12 01:40:21;;;;;;;1.20;1.07;;;18.90;99.90;;;;;;5073860;28;20472;-82
2023/07/12 01:42:48;;;;;;;0.90;0.80;;;18.90;99.90;;;;;;5073880;28;20789;-82
2023/07/12 01:45:15;;;;;;;3.43;0.90;;;18.90;99.90;;;;;;5073605;28;20944;-82
2023/07/12 01:47:42;;;;;;;1.67;1.03;;;18.90;99.90;;;;;;5073822;28;20436;-83
2023/07/12 01:50:09;;;;;;;11.23;1.47;;;18.80;99.90;;;;;;5073729;28;20472;-82
2023/07/12 01:52:35;;;;;;;3.63;0.90;;;18.70;99.90;;;;;;5073741;28;20810;-82
2023/07/12 01:55:02;;;;;;;2.10;1.20;;;18.60;99.90;;;;;;5073378;28;20452;-82
2023/07/12 01:57:30;;;;;;;1.17;1.07;;;18.60;99.90;;;;;;5073681;28;20440;-82
2023/07/12 01:59:57;;;;;;;1.30;1.20;;;18.50;99.90;;;;;;5073684;28;20474;-82
2023/07/12 02:02:24;;;;;;;1.93;0.90;;;18.50;99.90;;;;;;5073647;28;20813;-82
2023/07/12 02:04:50;;;;;;;1.13;1.00;;;18.40;99.90;;;;;;5073284;28;20448;-83
2023/07/12 02:07:17;;;;;;;0.80;0.80;;;18.40;99.90;;;;;;5073539;28;20495;-82
2023/07/12 02:10:08;;;;;;;1.43;1.10;;;18.40;99.90;;;;;;5073168;28;20472;-82
2023/07/12 02:12:36;;;;;;;1.33;0.97;;;18.40;99.90;;;;;;5073299;28;20453;-82
2023/07/12 02:15:03;;;;;;;1.57;1.00;;;18.40;99.90;;;;;;5073502;28;20437;-83
2023/07/12 02:17:30;;;;;;;2.63;1.20;;;18.40;99.90;;;;;;5073286;28;20452;-82
2023/07/12 02:19:57;;;;;;;6.53;1.43;;;18.40;99.90;;;;;;5073367;28;20467;-82
2023/07/12 02:22:24;;;;;;;2.60;0.93;;;18.50;99.90;;;;;;5073607;28;20441;-82
2023/07/12 02:24:50;;;;;;;1.97;0.97;;;18.50;99.90;;;;;;5073120;28;20962;-81
2023/07/12 02:27:17;;;;;;;2.80;1.07;;;18.50;99.90;;;;;;5072753;28;20476;-81
2023/07/12 02:29:45;;;;;;;3.40;1.40;;;18.60;99.90;;;;;;5072948;28;20491;-81
2023/07/12 02:32:12;;;;;;;1.60;0.97;;;18.60;99.90;;;;;;5073303;28;20456;-81
2023/07/12 02:34:38;;;;;;;0.90;0.80;;;18.60;99.90;;;;;;5073286;28;20465;-82
2023/07/12 02:37:05;;;;;;;1.30;1.17;;;18.50;99.90;;;;;;5073347;28;20476;-82
2023/07/12 02:39:32;;;;;;;1.10;1.00;;;18.50;99.90;;;;;;5073335;28;20855;-82
2023/07/12 02:41:59;;;;;;;2.97;1.10;;;18.50;99.90;;;;;;5073293;28;20448;-82
2023/07/12 02:44:26;;;;;;;1.47;1.37;;;18.40;99.90;;;;;;5073176;28;20488;-82
2023/07/12 02:46:54;;;;;;;1.33;0.90;;;18.40;99.90;;;;;;5073053;28;20489;-82
2023/07/12 02:49:21;;;;;;;1.70;1.30;;;18.40;99.90;;;;;;5072929;28;20843;-82
2023/07/12 02:51:47;;;;;;;1.03;0.93;;;18.40;99.90;;;;;;5073120;28;20453;-82
2023/07/12 02:54:14;;;;;;;1.53;1.00;;;18.40;99.90;;;;;;5073088;28;20456;-82
2023/07/12 02:56:41;;;;;;;1.27;1.17;;;18.30;99.90;;;;;;5072701;28;20547;-82
2023/07/12 02:59:08;;;;;;;1.10;1.10;;;18.30;99.90;;;;;;5072740;28;20469;-82
2023/07/12 03:01:35;;;;;;;1.40;1.30;;;18.30;99.90;;;;;;5073082;28;20444;-81
2023/07/12 03:04:03;;;;;;;1.83;1.10;;;18.30;99.90;;;;;;5072661;28;20825;-81
2023/07/12 03:06:30;;;;;;;3.30;1.40;;;18.40;99.90;;;;;;5072949;28;20495;-82
2023/07/12 03:08:57;;;;;;;2.17;1.27;;;18.40;99.90;;;;;;5073007;28;20452;-82
2023/07/12 03:11:23;;;;;;;2.80;1.17;;;18.40;99.90;;;;;;5072989;28;20449;-82
2023/07/12 03:13:50;;;;;;;3.63;1.30;;;18.40;99.90;;;;;;5072901;28;20802;-82
2023/07/12 03:16:17;;;;;;;2.50;1.17;;;18.30;99.90;;;;;;5072873;28;20456;-82
2023/07/12 03:18:44;;;;;;;2.03;1.57;;;18.30;99.90;;;;;;5072818;28;20449;-82
2023/07/12 03:21:12;;;;;;;1.23;1.13;;;18.30;99.90;;;;;;5072847;28;20812;-82
2023/07/12 03:23:38;;;;;;;1.13;1.07;;;18.30;99.90;;;;;;5072502;28;20967;-82
2023/07/12 03:26:05;;;;;;;1.50;1.40;;;18.30;99.90;;;;;;5072716;28;20476;-81
2023/07/12 03:28:32;;;;;;;3.57;1.80;;;18.30;99.90;;;;;;5072610;28;20515;-81
2023/07/12 03:31:00;;;;;;;2.70;2.33;;;18.30;99.90;;;;;;5072462;28;21044;-81
2023/07/12 03:33:27;;;;;;;1.40;1.03;;;18.40;99.90;;;;;;5072683;28;20471;-81
2023/07/12 03:35:54;;;;;;;1.97;1.23;;;18.40;99.90;;;;;;5072679;28;20449;-82
2023/07/12 03:38:24;;;;;;;2.40;1.60;;;18.40;99.90;;;;;;5072986;28;20808;-82
2023/07/12 03:40:51;;;;;;;2.10;1.03;;;18.40;99.90;;;;;;5076191;28;20464;-82
2023/07/12 03:43:18;;;;;;;2.20;1.47;;;18.40;99.90;;;;;;5076247;28;20447;-82
2023/07/12 03:45:45;;;;;;;0.90;0.90;;;18.50;99.90;;;;;;5076161;28;20793;-81
2023/07/12 03:48:12;;;;;;;1.30;1.03;;;18.50;99.90;;;;;;5076037;28;20484;-82
2023/07/12 03:50:39;;;;;;;2.13;1.50;;;18.40;99.90;;;;;;5075680;28;20998;-82
2023/07/12 03:53:06;;;;;;;2.70;1.50;;;18.40;99.90;;;;;;5076058;28;20510;-81
2023/07/12 03:55:39;;;;;;;2.27;0.93;;;18.40;99.90;;;;;;5075702;28;20964;-82
2023/07/12 03:58:06;;;;;;;2.03;1.70;;;18.40;99.90;;;;;;5075967;28;20436;-81
2023/07/12 04:00:33;;;;;;;9.80;1.63;;;18.50;99.90;;;;;;5075845;28;20468;-82
2023/07/12 04:02:59;;;;;;;1.37;1.20;;;18.40;99.90;;;;;;5075543;28;20823;-80
2023/07/12 04:05:26;;;;;;;1.40;1.30;;;18.50;99.90;;;;;;5075568;28;20452;-81
2023/07/12 04:07:56;;;;;;;1.50;1.40;;;18.50;99.90;;;;;;5075909;28;20818;-81
2023/07/12 04:10:23;;;;;;;3.07;1.53;;;18.60;99.90;;;;;;5075559;28;20476;-81
2023/07/12 04:12:51;;;;;;;2.20;1.37;;;18.60;99.90;;;;;;5075694;28;20806;-81
2023/07/12 04:15:18;;;;;;;1.87;1.40;;;18.60;99.90;;;;;;5075633;28;20445;-81
2023/07/12 04:17:44;;;;;;;3.30;1.80;;;18.60;99.90;;;;;;5075577;28;20524;-81
2023/07/12 04:20:12;;;;;;;4.43;1.93;;;18.70;99.90;;;;;;5075351;28;20461;-81
2023/07/12 04:22:39;;;;;;;2.00;1.47;;;18.70;99.90;;;;;;5075528;28;20452;-81
2023/07/12 04:25:08;;;;;;;1.17;1.07;;;18.70;99.90;;;;;;5075137;28;20976;-81
2023/07/12 04:27:37;;;;;;;4.93;1.90;;;18.70;99.90;;;;;;5075312;28;20480;-81
2023/07/12 04:30:06;;;;;;;2.30;1.63;;;18.80;99.90;;;;;;5074928;28;20849;-81
2023/07/12 04:32:34;;;;;;;3.20;1.13;;;18.80;99.90;;;;;;5075311;28;20870;-81
2023/07/12 04:35:01;;;;;;;1.10;1.00;;;19.00;99.90;;;;;;5075062;28;20444;-81
2023/07/12 04:37:28;;;;;;;3.33;1.20;;;19.00;99.90;;;;;;5075796;28;20449;-81
2023/07/12 04:39:55;;;;;;;1.57;1.47;;;19.00;99.90;;;;;;5075077;28;20469;-81
2023/07/12 04:42:22;;;;;;;3.50;1.70;;;19.10;99.90;;;;;;5075111;28;20445;-81
2023/07/12 04:44:49;;;;;;;1.37;1.10;;;19.10;99.90;;;;;;5075029;28;20457;-81
2023/07/12 04:47:18;;;;;;;1.53;1.30;;;19.10;99.90;;;;;;5074652;28;21003;-82
2023/07/12 04:49:45;;;;;;;7.40;1.77;;;19.10;99.90;;;;;;5074586;28;20996;-81
2023/07/12 04:52:12;;;;;;;2.20;2.00;;;19.10;99.90;;;;;;5074879;28;20452;-81
2023/07/12 04:54:40;;;;;;;3.33;1.93;;;19.00;99.90;;;;;;5075007;28;20449;-81
2023/07/12 04:57:07;;;;;;;1.40;1.30;;;19.00;99.90;;;;;;5075171;28;20449;-81
2023/07/12 04:59:35;;;;;;;2.20;1.27;;;19.00;99.90;;;;;;5075014;28;20487;-81
2023/07/12 05:02:02;;;;;;;6.87;1.53;;;19.00;99.90;;;;;;5074510;28;20940;-83
2023/07/12 05:04:30;;;;;;;1.90;1.60;;;18.90;99.90;;;;;;5074433;28;20437;-82
2023/07/12 05:06:56;;;;;;;1.77;1.10;;;18.90;99.90;;;;;;5074552;28;20477;-83
2023/07/12 05:09:23;;;;;;;1.30;1.20;;;19.00;99.90;;;;;;5074503;28;20469;-82
2023/07/12 05:11:51;;;;;;;3.10;1.73;;;19.00;99.90;;;;;;5074219;28;20948;-83
2023/07/12 05:14:18;;;;;;;3.00;1.33;;;19.00;99.90;;;;;;5074204;28;20975;-83
2023/07/12 05:16:45;;;;;;;4.00;1.70;;;19.10;99.90;;;;;;5074150;28;20611;-83
2023/07/12 05:19:12;;;;;;;3.13;1.60;;;19.10;99.90;;;;;;5074310;28;20566;-83
2023/07/12 05:21:40;;;;;;;2.07;1.37;;;19.20;99.90;;;;;;5074295;28;20934;-82
2023/07/12 05:24:07;;;;;;;5.33;1.30;;;19.20;99.90;;;;;;5073937;28;20456;-83
2023/07/12 05:26:33;;;;;;;1.70;1.23;;;19.30;99.90;;;;;;5074210;28;20453;-83
2023/07/12 05:29:00;;;;;;;3.70;2.53;;;19.30;99.90;;;;;;5073555;28;20976;-82
2023/07/12 05:31:27;;;;;;;3.70;2.00;;;19.40;99.90;;;;;;5073828;28;20949;-83
2023/07/12 05:33:54;;;;;;;8.00;2.30;;;19.20;99.90;;;;;;5074211;28;20449;-83
2023/07/12 05:36:20;;;;;;;2.57;2.13;;;19.30;99.90;;;;;;5073785;28;20447;-83
2023/07/12 05:38:48;;;;;;;3.30;2.03;;;19.30;99.90;;;;;;5073863;28;20445;-83
2023/07/12 05:41:15;;;;;;;7.80;1.30;;;19.40;99.90;;;;;;5073976;28;20451;-83
2023/07/12 05:43:43;;;;;;;3.60;2.53;;;19.40;99.90;;;;;;5073896;28;20459;-83
2023/07/12 05:46:09;;;;;;;2.20;1.70;;;19.50;99.90;;;;;;5073918;28;20453;-83
2023/07/12 05:48:37;;;;;;;2.90;2.13;;;19.60;99.90;;;;;;5073529;28;20476;-83
2023/07/12 05:51:04;;;;;;;3.30;2.33;;;19.60;99.90;;;;;;5073726;28;20472;-83
2023/07/12 05:53:31;;;;;;;2.10;1.87;;;19.70;99.90;;;;;;5073404;28;20826;-83
2023/07/12 05:56:00;;;;;;;2.77;2.47;;;19.60;99.90;;;;;;5073895;28;20449;-83
2023/07/12 05:58:27;;;;;;;2.80;2.37;;;19.60;99.90;;;;;;5073705;28;20456;-83
2023/07/12 06:00:58;;;;;;;2.27;2.07;;;19.70;99.90;;;;;;5073435;28;20465;-83
2023/07/12 06:03:25;;;;;;;1.90;1.80;;;19.70;99.90;;;;;;5073509;28;20543;-83
2023/07/12 06:05:52;;;;;;;4.53;2.30;;;19.70;99.90;;;;;;5073359;28;20964;-83
2023/07/12 06:08:19;;;;;;;3.50;2.97;;;19.80;99.90;;;;;;5073533;28;20484;-83
2023/07/12 06:10:46;;;;;;;2.43;2.00;;;19.90;99.90;;;;;;5073441;28;20468;-82
2023/07/12 06:13:14;;;;;;;4.20;2.87;;;19.90;99.90;;;;;;5073192;28;20956;-83
2023/07/12 06:15:41;;;;;;;2.47;2.10;;;20.10;99.90;;;;;;5073468;28;20448;-83
2023/07/12 06:18:08;;;;;;;2.27;2.03;;;20.00;99.90;;;;;;5073708;28;20514;-83
2023/07/12 06:20:35;;;;;;;1.53;1.43;;;20.20;99.90;;;;;;5073362;28;20472;-83
2023/07/12 06:23:02;;;;;;;4.33;2.40;;;20.20;99.90;;;;;;5073123;28;20445;-82
2023/07/12 06:25:29;;;;;;;7.03;2.10;;;20.30;99.90;;;;;;5073113;28;20449;-84
2023/07/12 06:27:56;;;;;;;3.40;2.27;;;20.40;99.90;;;;;;5073338;28;20544;-83
2023/07/12 06:30:24;;;;;;;1.90;1.63;;;20.50;99.90;;;;;;5072906;28;20488;-83
2023/07/12 06:32:51;;;;;;;7.03;2.97;;;20.80;99.90;;;;;;5073369;28;20439;-83
2023/07/12 06:35:18;;;;;;;2.50;2.20;;;20.90;99.90;;;;;;5073396;28;20451;-82
2023/07/12 06:37:45;;;;;;;3.67;2.33;;;21.30;99.90;;;;;;5073349;28;20458;-82
2023/07/12 06:40:12;;;;;;;2.43;2.23;;;21.60;99.90;;;;;;5072942;28;20467;-82
2023/07/12 06:42:38;;;;;;;3.87;2.30;;;21.80;99.90;;;;;;5073268;28;20448;-82
2023/07/12 06:45:06;;;;;;;3.30;2.33;;;22.10;99.90;;;;;;5073240;28;20443;-82
2023/07/12 06:47:35;;;;;;;3.73;2.20;;;22.30;99.90;;;;;;5073085;28;20479;-82
2023/07/12 06:50:02;;;;;;;3.33;2.57;;;22.50;99.90;;;;;;5073552;28;20479;-82
2023/07/12 06:52:28;;;;;;;3.63;2.60;;;22.60;99.90;;;;;;5073305;28;20452;-82
2023/07/12 06:54:55;;;;;;;2.53;2.33;;;22.90;99.90;;;;;;5072780;28;20449;-82
2023/07/12 06:57:22;;;;;;;4.10;2.67;;;23.00;99.90;;;;;;5073937;28;20448;-82
2023/07/12 06:59:48;;;;;;;3.93;2.20;;;23.20;99.90;;;;;;5073002;28;20226;-82
2023/07/12 07:02:15;;;;;;;2.70;1.83;;;23.10;99.90;;;;;;5073006;28;20571;-82
2023/07/12 07:04:43;;;;;;;3.80;2.33;;;23.20;99.90;;;;;;5072998;28;20445;-82
2023/07/12 07:07:10;;;;;;;3.53;2.37;;;23.10;99.90;;;;;;5072912;28;20202;-82
2023/07/12 07:09:38;;;;;;;3.73;2.57;;;23.00;99.90;;;;;;5072835;28;20472;-82
2023/07/12 07:12:06;;;;;;;9.30;2.63;;;22.90;99.90;;;;;;5072914;28;20229;-83
2023/07/12 07:14:33;;;;;;;3.10;1.90;;;23.00;99.90;;;;;;5075102;28;20210;-83
2023/07/12 07:16:59;;;;;;;1.90;1.80;;;23.20;99.90;;;;;;5076704;28;20526;-82
2023/07/12 07:19:26;;;;;;;1.87;1.60;;;23.30;99.90;;;;;;5076592;28;20222;-82
2023/07/12 07:21:54;;;;;;;3.07;2.10;;;23.50;99.90;;;;;;5076608;28;20202;-82
2023/07/12 07:24:22;;;;;;;2.93;2.63;;;23.70;99.90;;;;;;5076627;28;20202;-82
2023/07/12 07:26:49;;;;;;;3.60;2.17;;;23.70;99.90;;;;;;5076496;28;20205;-82
2023/07/12 07:29:16;;;;;;;4.30;2.80;;;23.70;99.90;;;;;;5076045;28;20317;-82
2023/07/12 07:31:44;;;;;;;2.50;2.30;;;23.60;99.90;;;;;;5076133;28;20208;-82
2023/07/12 07:34:11;;;;;;;2.30;2.07;;;23.60;99.90;;;;;;5076388;28;20206;-82
2023/07/12 07:36:37;;;;;;;2.80;2.50;;;23.60;99.90;;;;;;5076362;28;20213;-81
2023/07/12 07:39:05;;;;;;;15.17;2.60;;;23.70;99.90;;;;;;5076235;28;20194;-82
2023/07/12 07:41:32;;;;;;;3.70;2.57;;;23.80;99.90;;;;;;5076295;28;20212;-82
2023/07/12 07:43:59;;;;;;;2.28;2.15;;;23.90;99.90;;;;;;5075975;28;20202;-82
2023/07/12 07:46:27;;;;;;;2.75;2.30;;;24.10;99.90;;;;;;5075982;28;20201;-83
2023/07/12 07:48:53;;;;;;;3.63;2.88;;;24.20;99.90;;;;;;5076027;28;20233;-82
2023/07/12 07:51:20;;;;;;;3.55;1.77;;;24.30;99.90;;;;;;5076145;28;20209;-82
2023/07/12 07:53:47;;;;;;;2.78;2.50;;;24.50;99.90;;;;;;5076096;28;20289;-83
2023/07/12 07:56:15;;;;;;;6.30;2.95;;;24.70;99.90;;;;;;5076073;28;20202;-82
2023/07/12 07:58:42;;;;;;;1.67;1.58;;;24.80;99.90;;;;;;5076048;28;20198;-82
2023/07/12 08:01:08;;;;;;;2.05;1.70;;;24.80;99.90;;;;;;5075888;28;20237;-83
2023/07/12 08:03:35;;;;;;;2.92;1.75;;;24.90;99.90;;;;;;5075944;28;20202;-83
2023/07/12 08:06:03;;;;;;;4.30;1.88;;;25.10;99.90;;;;;;5075606;28;20681;-82
2023/07/12 08:08:30;;;;;;;2.65;2.40;;;25.30;99.90;;;;;;5075379;28;20693;-83
2023/07/12 08:10:57;;;;;;;3.67;1.80;;;25.40;99.90;;;;;;5075396;28;20709;-83
2023/07/12 08:13:26;;;;;;;2.15;1.90;;;25.70;99.90;;;;;;5075715;28;20293;-83
2023/07/12 08:15:55;;;;;;;2.28;2.10;;;25.90;99.90;;;;;;5075753;28;20198;-83
2023/07/12 08:18:22;;;;;;;2.08;1.90;;;26.00;99.90;;;;;;5075606;28;20205;-83
2023/07/12 08:20:49;;;;;;;2.00;1.80;;;26.10;99.90;;;;;;5075510;28;20226;-83
2023/07/12 08:23:16;;;;;;;1.58;1.48;;;26.30;99.90;;;;;;5075574;28;20205;-83
2023/07/12 08:25:43;;;;;;;1.33;1.23;;;26.60;99.90;;;;;;5075073;28;20213;-83
2023/07/12 08:28:09;;;;;;;1.30;1.20;;;26.70;99.90;;;;;;5075014;28;20716;-83
2023/07/12 08:30:37;;;;;;;2.70;1.08;;;26.90;99.90;;;;;;5075007;28;20230;-83
2023/07/12 08:33:04;;;;;;;1.50;1.35;;;27.10;99.90;;;;;;5075376;28;20206;-83
2023/07/12 08:35:31;;;;;;;1.35;1.25;;;27.20;99.90;;;;;;5075311;28;20236;-83
2023/07/12 08:37:58;;;;;;;1.73;1.38;;;27.30;99.90;;;;;;5075296;28;20209;-84
2023/07/12 08:40:25;;;;;;;2.13;1.40;;;27.50;99.90;;;;;;5075103;28;20220;-84
2023/07/12 08:42:52;;;;;;;2.08;1.88;;;27.70;99.90;;;;;;5075172;28;20203;-83
2023/07/12 08:45:27;;;;;;;1.25;1.08;;;27.70;99.90;;;;;;5074817;28;20202;-83
2023/07/12 08:48:00;;;;;;;2.00;1.90;;;27.90;99.90;;;;;;5074993;28;20211;-83
2023/07/12 08:50:29;;;;;;;0.90;0.90;;;27.90;99.90;;;;;;5074963;28;20229;-83
2023/07/12 08:52:56;;;;;;;0.98;0.80;;;27.90;99.90;;;;;;5074968;28;20206;-83
2023/07/12 08:55:24;;;;;;;1.45;1.00;;;27.70;99.90;;;;;;5074840;28;20202;-82
2023/07/12 08:57:55;;;;;;;1.05;0.95;;;27.90;99.90;;;;;;5074851;28;20207;-85
2023/07/12 09:00:24;;;;;;;2.22;0.90;;;27.80;99.90;;;;;;5074756;28;20229;-83
2023/07/12 09:02:51;;;;;;;1.20;1.10;;;27.60;99.90;;;;;;5074790;28;20187;-83
2023/07/12 09:05:21;;;;;;;1.33;1.23;;;27.50;99.90;;;;;;5074690;28;20206;-83
2023/07/12 09:07:55;;;;;;;0.80;0.80;;;27.40;99.90;;;;;;5074418;28;20186;-82
2023/07/12 09:10:33;;;;;;;1.60;1.27;;;27.50;99.90;;;;;;5074532;28;20226;-84
2023/07/12 09:13:00;;;;;;;3.33;1.10;;;27.80;99.90;;;;;;5074547;28;20190;-83
2023/07/12 09:15:34;;;;;;;1.15;1.05;;;28.10;99.90;;;;;;5074231;28;20717;-83
2023/07/12 09:18:01;;;;;;;1.27;1.10;;;28.20;99.90;;;;;;5074498;28;20274;-83
2023/07/12 09:20:32;;;;;;;1.95;0.98;;;28.30;99.90;;;;;;5074318;28;20222;-83
2023/07/12 09:23:00;;;;;;;1.30;1.20;;;28.00;99.90;;;;;;5074423;28;20186;-83
2023/07/12 09:25:34;;;;;;;2.78;1.23;;;27.90;99.90;;;;;;5074524;28;20557;-83
2023/07/12 09:28:00;;;;;;;1.30;1.02;;;27.80;99.90;;;;;;5074229;28;20218;-83
2023/07/12 09:30:29;;;;;;;0.98;0.80;;;27.80;99.90;;;;;;5073783;28;20238;-83
2023/07/12 09:32:57;;;;;;;1.20;1.10;;;27.70;99.90;;;;;;5073906;28;20638;-83
2023/07/12 09:35:27;;;;;;;0.82;0.75;;;27.50;99.90;;;;;;5073806;28;20209;-83
2023/07/12 09:37:59;;;;;;;2.05;0.90;;;27.50;99.90;;;;;;5073084;28;20205;-83
2023/07/12 09:40:30;;;;;;;1.17;0.95;;;27.70;99.90;;;;;;5073955;28;20321;-82
2023/07/12 09:42:57;;;;;;;2.05;1.20;;;27.80;99.90;;;;;;5073696;28;20655;-83
2023/07/12 09:45:28;;;;;;;0.90;0.90;;;27.80;99.90;;;;;;5073919;28;20247;-82
2023/07/12 09:48:03;;;;;;;1.00;1.00;;;27.90;99.90;;;;;;5073528;28;20277;-83
2023/07/12 09:50:37;;;;;;;0.70;0.70;;;27.90;99.90;;;;;;5073816;28;20221;-83
2023/07/12 09:53:13;;;;;;;1.17;1.08;;;27.90;99.90;;;;;;5073861;28;20194;-83
2023/07/12 09:55:45;;;;;;;1.27;1.17;;;27.80;99.90;;;;;;5073839;28;20536;-83
2023/07/12 09:58:19;;;;;;;2.83;1.27;;;27.90;99.90;;;;;;5073768;28;20217;-83
2023/07/12 10:00:53;;;;;;;1.83;0.98;;;28.20;99.90;;;;;;5073656;28;20225;-83
2023/07/12 10:03:24;;;;;;;1.23;1.10;;;28.40;99.90;;;;;;5073404;28;20668;-83
2023/07/12 10:05:57;;;;;;;0.88;0.88;;;28.60;99.90;;;;;;5073399;28;20187;-82
2023/07/12 10:08:39;;;;;;;0.88;0.88;;;28.50;99.90;;;;;;5073227;28;20693;-82
2023/07/12 10:11:11;;;;;;;0.70;0.70;;;28.60;99.90;;;;;;5073525;28;20275;-82
2023/07/12 10:13:42;;;;;;;2.45;0.82;;;28.60;99.90;;;;;;5073623;28;20191;-83
2023/07/12 10:16:14;;;;;;;0.80;0.80;;;28.60;99.90;;;;;;5073576;28;20186;-82
2023/07/12 10:18:43;;;;;;;1.02;0.90;;;28.40;99.90;;;;;;5073224;28;20208;-82
2023/07/12 10:21:14;;;;;;;1.20;1.20;;;28.40;99.90;;;;;;5073410;28;20233;-82
2023/07/12 10:23:46;;;;;;;0.85;0.85;;;28.30;99.90;;;;;;5073163;28;20650;-82
2023/07/12 10:26:15;;;;;;;1.05;0.95;;;28.40;99.90;;;;;;5073423;28;20202;-82
2023/07/12 10:28:48;;;;;;;0.80;0.80;;;28.50;99.90;;;;;;5073091;28;20325;-81
2023/07/12 10:31:32;;;;;;;1.13;0.80;;;28.50;99.90;;;;;;5073412;28;20194;-82
2023/07/12 10:34:12;;;;;;;1.20;1.10;;;28.70;99.90;;;;;;5073054;28;20193;-81
2023/07/12 10:36:39;;;;;;;2.30;1.30;;;28.70;99.90;;;;;;5073430;28;20186;-81
2023/07/12 10:39:08;;;;;;;2.25;1.35;;;28.60;99.90;;;;;;5073182;28;20198;-82
2023/07/12 10:41:42;;;;;;;1.45;1.35;;;28.70;99.90;;;;;;5072958;28;20208;-83
2023/07/12 10:44:17;;;;;;;1.63;0.82;;;28.70;99.90;;;;;;5073251;28;20189;-82
2023/07/12 10:46:46;;;;;;;1.15;1.05;;;28.70;99.90;;;;;;5073254;28;20192;-82
2023/07/12 10:49:16;;;;;;;1.08;1.08;;;28.70;99.90;;;;;;5076272;28;20698;-82
2023/07/12 10:51:45;;;;;;;2.22;1.02;;;28.80;99.90;;;;;;5076961;28;20202;-82
2023/07/12 10:57:29;;;;;;;1.23;1.13;;;28.90;99.90;;;;;;5152313;27;20566;-81
2023/07/12 11:00:01;;;;;;;2.65;1.20;;;28.80;99.90;;;;;;5152171;27;20737;-82
2023/07/12 11:02:29;;;;;;;2.08;1.20;;;28.90;99.90;;;;;;5152369;27;20202;-82
2023/07/12 11:04:56;;;;;;;1.30;1.20;;;29.00;99.90;;;;;;5152094;27;20200;-81
2023/07/12 11:07:34;;;;;;;1.05;1.05;;;29.10;99.90;;;;;;5152311;27;20199;-81
2023/07/12 11:10:18;;;;;;;5.78;1.98;;;29.20;99.90;;;;;;5152137;27;20264;-82
2023/07/12 11:12:53;;;;;;;2.95;1.80;;;29.60;99.90;;;;;;5152663;27;20210;-82
2023/07/12 11:15:23;;;;;;;1.42;1.20;;;29.80;99.90;;;;;;5152141;27;20573;-81
2023/07/12 11:17:58;;;;;;;1.75;1.48;;;30.00;99.90;;;;;;5152154;27;20208;-82
2023/07/12 11:20:27;;;;;;;1.10;1.08;;;29.90;99.90;;;;;;5152032;27;20222;-81
2023/07/12 11:23:21;;;;;;;2.10;1.67;;;29.70;99.90;;;;;;5151689;27;20754;-82
2023/07/12 11:26:03;;;;;;;2.25;1.60;;;29.30;99.90;;;;;;5151525;27;20198;-81
2023/07/12 11:28:42;;;;;;;1.38;1.27;;;29.20;99.90;;;;;;5151608;27;20190;-81
2023/07/12 11:31:26;;;;;;;1.73;1.63;;;29.10;99.90;;;;;;5151849;27;20236;-82
2023/07/12 11:33:58;;;;;;;1.42;1.20;;;28.90;99.90;;;;;;5151820;27;20193;-82
2023/07/12 11:36:28;;;;;;;1.73;1.23;;;28.80;99.90;;;;;;5151765;27;20208;-82
2023/07/12 11:38:57;;;;;;;3.15;1.85;;;28.70;99.90;;;;;;5151669;27;20188;-82
2023/07/12 11:41:26;;;;;;;2.28;1.15;;;28.70;99.90;;;;;;5151712;27;20195;-82
2023/07/12 11:44:04;;;;;;;2.17;1.58;;;28.70;99.90;;;;;;5151319;27;20719;-82
2023/07/12 11:46:35;;;;;;;1.63;1.10;;;28.70;99.90;;;;;;5151627;27;20202;-82
2023/07/12 11:49:04;;;;;;;1.27;1.17;;;28.70;99.90;;;;;;5151411;27;20253;-82
2023/07/12 11:51:35;;;;;;;1.88;1.33;;;28.80;99.90;;;;;;5151101;27;20205;-82
2023/07/12 11:54:04;;;;;;;1.90;1.48;;;28.80;99.90;;;;;;5151420;27;20185;-82
2023/07/12 11:56:30;;;;;;;1.65;1.55;;;28.90;99.90;;;;;;5150877;27;20233;-82
2023/07/12 11:58:57;;;;;;;1.58;1.48;;;28.90;99.90;;;;;;5151262;27;20245;-81
2023/07/12 12:01:26;;;;;;;1.65;1.50;;;28.90;99.90;;;;;;5151276;27;20568;-82
2023/07/12 12:03:53;;;;;;;1.35;1.17;;;28.90;99.90;;;;;;5151193;27;20208;-82
2023/07/12 12:06:21;;;;;;;2.30;1.42;;;28.90;99.90;;;;;;5151188;27;20219;-82
2023/07/12 12:08:55;;;;;;;3.42;1.98;;;29.00;99.90;;;;;;5136705;27;20196;-82
2023/07/12 12:11:22;;;;;;;1.70;1.60;;;29.00;98.70;;;;;;5137014;27;20702;-81
2023/07/12 12:13:52;;;;;;;1.98;1.50;;;29.00;99.10;;;;;;5137252;27;20202;-82
2023/07/12 12:16:21;;;;;;;1.65;1.30;;;28.90;99.90;;;;;;5137163;27;20206;-81
2023/07/12 12:18:58;;;;;;;2.08;1.55;;;28.80;99.90;;;;;;5136964;27;20194;-82
2023/07/12 12:21:25;;;;;;;1.48;1.38;;;28.60;99.90;;;;;;5136819;27;20200;-82
2023/07/12 12:23:54;;;;;;;1.05;1.00;;;28.60;99.90;;;;;;5136754;27;20676;-82
2023/07/12 12:26:24;;;;;;;1.10;1.00;;;28.60;99.90;;;;;;5136638;27;20684;-81
2023/07/12 12:28:53;;;;;;;1.20;1.10;;;28.50;99.90;;;;;;5137148;27;20190;-82
2023/07/12 12:31:22;;;;;;;2.95;1.50;;;28.50;99.90;;;;;;5137709;27;20558;-82
2023/07/12 12:33:51;;;;;;;1.20;1.15;;;28.40;99.60;;;;;;5136835;27;20196;-81
2023/07/12 12:36:23;;;;;;;1.13;1.02;;;28.40;99.90;;;;;;5136402;27;20223;-81
2023/07/12 12:38:58;;;;;;;1.70;1.50;;;28.40;99.90;;;;;;5136700;27;20180;-81
2023/07/12 12:41:31;;;;;;;1.10;0.90;;;28.30;99.90;;;;;;5137314;27;20188;-82
2023/07/12 12:43:59;;;;;;;1.35;1.25;;;28.20;99.30;;;;;;5136406;27;20180;-82
2023/07/12 12:46:27;;;;;;;1.23;1.13;;;28.20;99.90;;;;;;5136630;27;20277;-81
2023/07/12 12:48:54;;;;;;;1.25;1.15;;;28.20;99.40;;;;;;5136065;27;20572;-81
2023/07/12 12:51:23;;;;;;;1.55;1.13;;;28.20;98.40;;;;;;5136204;27;20581;-81
2023/07/12 12:53:49;;;;;;;1.25;1.15;;;28.20;99.60;;;;;;5136441;27;20207;-81
2023/07/12 12:56:16;;;;;;;2.45;1.30;;;28.10;98.90;;;;;;5135946;27;20228;-82
2023/07/12 12:58:43;;;;;;;1.35;1.20;;;28.00;99.90;;;;;;5136023;27;20573;-81